Time;durP1;ratioP1;P1;durP2;ratioP2;P2;SDS_P1;SDS_P2;PMS_P1;PMS_P2;Temp;Humidity;BMP_temperature;BMP_pressure;BME280_temperature;BME280_humidity;BME280_pressure;Samples;Min_cycle;Max_cycle;Signal;HPM_P1;HPM_P2
2022/01/12 00:00:32;;;;;;;;;;;;;;;1.41;100.00;103383.78;5244111;28;20028;-69
2022/01/12 00:03:03;;;;;;;24.43;13.73;;;;;;;1.45;100.00;103385.53;5248362;28;20364;-69
2022/01/12 00:05:34;;;;;;;30.15;14.70;;;;;;;1.37;100.00;103396.03;5248747;28;20033;-69
2022/01/12 00:08:07;;;;;;;30.05;15.07;;;;;;;1.38;100.00;103402.16;5242428;28;20333;-69
2022/01/12 00:10:39;;;;;;;23.98;14.13;;;;;;;1.40;100.00;103399.53;5247529;28;20033;-69
2022/01/12 00:13:11;;;;;;;26.67;14.25;;;;;;;1.46;100.00;103405.72;5242580;28;20037;-70
2022/01/12 00:15:42;;;;;;;25.48;15.20;;;;;;;1.47;100.00;103409.22;5245594;28;20253;-70
2022/01/12 00:18:13;;;;;;;24.92;14.35;;;;;;;1.46;100.00;103410.97;5246278;28;20107;-70
2022/01/12 00:20:45;;;;;;;24.75;14.27;;;;;;;1.47;100.00;103407.44;5241729;28;20056;-69
2022/01/12 00:23:17;;;;;;;27.85;14.13;;;;;;;1.49;100.00;103416.22;5240312;28;20024;-70
2022/01/12 00:26:11;;;;;;;26.08;14.38;;;;;;;1.59;100.00;103417.13;5248523;28;20021;-69
2022/01/12 00:34:22;;;;;;;25.15;15.10;;;;;;;1.62;100.00;103418.91;5242095;28;20060;-69
2022/01/12 00:36:53;;;;;;;25.88;14.85;;;;;;;1.72;100.00;103420.69;5248325;28;20507;-69
2022/01/12 00:39:25;;;;;;;28.33;15.45;;;;;;;1.66;100.00;103418.03;5248699;28;20395;-69
2022/01/12 00:41:56;;;;;;;25.13;14.43;;;;;;;1.67;100.00;103432.94;5243646;28;20069;-69
2022/01/12 00:44:35;;;;;;;29.02;15.80;;;;;;;1.66;100.00;103439.97;5257797;28;20036;-69
2022/01/12 00:47:07;;;;;;;28.05;15.55;;;;;;;1.73;100.00;103446.13;5257936;28;20028;-69
2022/01/12 00:49:38;;;;;;;30.20;16.88;;;;;;;1.66;100.00;103450.47;5253673;28;20037;-69
2022/01/12 00:52:10;;;;;;;28.40;15.48;;;;;;;1.63;100.00;103457.50;5245695;28;20116;-69
2022/01/12 00:54:41;;;;;;;26.48;15.55;;;;;;;1.60;100.00;103450.47;5246996;28;20033;-69
2022/01/12 00:57:12;;;;;;;28.80;16.65;;;;;;;1.60;100.00;103457.50;5249366;28;20035;-69
2022/01/12 00:59:44;;;;;;;37.28;18.05;;;;;;;1.61;100.00;103459.25;5242822;28;20063;-69
2022/01/12 01:02:15;;;;;;;29.48;16.90;;;;;;;1.61;100.00;103460.16;5253389;28;20029;-68
2022/01/12 01:04:46;;;;;;;31.05;18.63;;;;;;;1.59;100.00;103468.88;5244379;28;20409;-68
2022/01/12 01:07:18;;;;;;;38.50;19.48;;;;;;;1.56;100.00;103465.38;5256039;28;20025;-68
2022/01/12 01:10:00;;;;;;;34.53;18.85;;;;;;;1.55;100.00;103465.34;5251534;28;20127;-68
2022/01/12 01:12:34;;;;;;;36.20;20.25;;;;;;;1.54;100.00;103468.88;5254833;28;20036;-68
2022/01/12 01:15:10;;;;;;;30.85;16.17;;;;;;;1.58;100.00;103469.78;5251551;28;20037;-68
2022/01/12 01:25:55;;;;;;;38.47;21.13;;;;;;;1.66;100.00;103454.88;5256776;28;20120;-69
2022/01/12 01:28:26;;;;;;;40.42;22.17;;;;;;;1.65;100.00;103454.00;5251442;28;20045;-69
2022/01/12 01:30:57;;;;;;;42.88;23.13;;;;;;;1.68;100.00;103448.75;5247880;28;20037;-69
2022/01/12 01:33:29;;;;;;;38.28;21.52;;;;;;;1.71;100.00;103447.88;5255807;28;20040;-69
2022/01/12 01:36:00;;;;;;;43.72;22.63;;;;;;;1.68;100.00;103451.38;5252484;28;20115;-69
2022/01/12 01:38:31;;;;;;;42.78;22.63;;;;;;;1.54;100.00;103466.25;5255325;28;20024;-69
2022/01/12 01:41:03;;;;;;;45.58;23.50;;;;;;;1.54;100.00;103463.63;5253310;28;20154;-69
2022/01/12 01:54:35;;;;;;;44.65;23.83;;;;;;;1.68;100.00;103484.72;5256307;28;20045;-69
2022/01/12 01:57:06;;;;;;;43.90;24.05;;;;;;;1.66;100.00;103460.16;5256616;28;20036;-69
2022/01/12 01:59:37;;;;;;;50.55;26.10;;;;;;;1.57;100.00;103445.19;5244271;28;20368;-69
2022/01/12 02:02:09;;;;;;;46.95;24.10;;;;;;;1.56;100.00;103449.59;5254598;28;20033;-69
2022/01/12 02:04:40;;;;;;;45.67;25.05;;;;;;;1.56;100.00;103441.69;5245000;28;20060;-69
2022/01/12 02:07:11;;;;;;;50.50;25.35;;;;;;;1.52;100.00;103429.41;5241792;28;20037;-69
2022/01/12 02:09:43;;;;;;;51.85;24.67;;;;;;;1.59;100.00;103421.53;5241377;28;20041;-69
2022/01/12 02:12:14;;;;;;;49.00;25.77;;;;;;;1.62;100.00;103443.47;5252619;28;20032;-69
2022/01/12 02:14:45;;;;;;;54.03;27.08;;;;;;;1.58;100.00;103436.44;5245456;28;20040;-69
2022/01/12 02:17:21;;;;;;;47.97;25.00;;;;;;;1.65;100.00;103435.59;5252500;28;20590;-69
2022/01/12 02:20:11;;;;;;;49.47;25.13;;;;;;;1.60;100.00;103439.94;5251079;28;20037;-69
2022/01/12 02:36:59;;;;;;;51.60;25.67;;;;;;;1.59;100.00;103461.84;5254251;28;20064;-69
2022/01/12 02:39:52;;;;;;;50.55;26.60;;;;;;;1.63;100.00;103470.66;5245487;28;20845;-69
2022/01/12 02:42:25;;;;;;;53.63;26.50;;;;;;;1.62;100.00;103477.66;5242859;28;20132;-69
2022/01/12 02:56:03;;;;;;;54.88;26.45;;;;;;;1.65;100.00;103475.06;5250356;28;20532;-69
2022/01/12 02:58:36;;;;;;;56.88;27.42;;;;;;;1.63;100.00;103486.44;5249799;28;20025;-69
2022/01/12 03:03:49;;;;;;;50.97;27.15;;;;;;;1.61;100.00;103486.47;5247970;28;20029;-69
2022/01/12 03:06:29;;;;;;;54.38;26.90;;;;;;;1.62;100.00;103493.47;5251845;28;20033;-69
2022/01/12 03:09:02;;;;;;;55.20;27.65;;;;;;;1.57;100.00;103503.09;5250046;28;20075;-69
2022/01/12 03:11:35;;;;;;;57.22;27.73;;;;;;;1.68;100.00;103511.91;5255074;28;20433;-69
2022/01/12 03:14:06;;;;;;;53.83;27.63;;;;;;;1.65;100.00;103517.16;5246150;28;20037;-69
2022/01/12 03:16:38;;;;;;;55.65;28.15;;;;;;;1.60;100.00;103521.53;5252583;28;20486;-69
2022/01/12 03:19:09;;;;;;;62.50;29.60;;;;;;;1.55;100.00;103531.13;5252386;28;20082;-69
2022/01/12 03:21:40;;;;;;;61.75;27.90;;;;;;;1.49;100.00;103539.00;5253282;28;20040;-69
2022/01/12 03:24:12;;;;;;;58.22;29.40;;;;;;;1.51;100.00;103527.59;5250702;28;20112;-69
2022/01/12 03:26:43;;;;;;;62.67;28.88;;;;;;;1.51;100.00;103534.63;5249959;28;20029;-69
2022/01/12 03:29:16;;;;;;;64.00;30.70;;;;;;;1.47;100.00;103540.75;5248209;28;20045;-69
2022/01/12 03:31:47;;;;;;;61.85;30.17;;;;;;;1.47;100.00;103531.09;5237242;28;20088;-69
2022/01/12 03:34:26;;;;;;;61.47;28.73;;;;;;;1.41;100.00;103532.84;5251230;28;20124;-69
2022/01/12 03:39:47;;;;;;;57.15;29.33;;;;;;;1.40;100.00;103520.53;5249201;28;20033;-69
2022/01/12 03:42:19;;;;;;;58.60;29.50;;;;;;;1.39;100.00;103527.56;5254921;28;20475;-69
2022/01/12 03:44:50;;;;;;;66.50;31.02;;;;;;;1.50;100.00;103519.75;5247403;28;20087;-69
2022/01/12 03:47:21;;;;;;;65.45;32.47;;;;;;;1.46;100.00;103510.03;5252609;28;20446;-69
2022/01/12 03:49:53;;;;;;;56.88;29.85;;;;;;;1.44;100.00;103514.41;5250603;28;20538;-69
2022/01/12 03:52:24;;;;;;;65.28;29.92;;;;;;;1.48;100.00;103521.47;5245278;28;20040;-69
2022/01/12 03:54:55;;;;;;;59.45;30.13;;;;;;;1.44;100.00;103522.31;5251201;28;20032;-69
2022/01/12 03:57:26;;;;;;;70.70;31.63;;;;;;;1.48;100.00;103522.34;5244404;28;20661;-69
2022/01/12 03:59:58;;;;;;;64.28;31.55;;;;;;;1.47;100.00;103533.72;5251580;28;20471;-69
2022/01/12 04:02:30;;;;;;;67.00;32.22;;;;;;;1.50;100.00;103543.41;5252099;28;20704;-69
2022/01/12 04:05:10;;;;;;;65.22;33.00;;;;;;;1.34;100.00;103548.59;5251834;28;20566;-69
2022/01/12 04:10:31;;;;;;;73.78;34.25;;;;;;;1.31;100.00;103552.94;5255369;28;20072;-70
2022/01/12 04:13:04;;;;;;;70.80;32.38;;;;;;;1.40;100.00;103547.75;5256338;28;20032;-69
2022/01/12 04:15:35;;;;;;;75.28;33.85;;;;;;;1.41;100.00;103552.13;5256940;28;20104;-69
2022/01/12 04:18:06;;;;;;;77.97;35.25;;;;;;;1.40;100.00;103554.75;5257798;28;20086;-70
2022/01/12 04:20:49;;;;;;;74.15;34.42;;;;;;;1.34;100.00;103545.06;5250469;28;20100;-69
2022/01/12 04:23:22;;;;;;;76.88;34.40;;;;;;;1.40;100.00;103541.59;5253202;28;20036;-69
2022/01/12 04:25:56;;;;;;;76.90;34.00;;;;;;;1.43;100.00;103547.75;5255585;28;20040;-69
2022/01/12 04:28:29;;;;;;;85.50;36.83;;;;;;;1.46;100.00;103558.31;5245024;28;20025;-69
2022/01/12 04:31:00;;;;;;;91.32;37.08;;;;;;;1.42;100.00;103550.38;5261232;28;20029;-69
2022/01/12 04:33:33;;;;;;;86.22;36.63;;;;;;;1.50;100.00;103552.19;5251821;28;20399;-70
2022/01/12 04:36:06;;;;;;;96.93;39.00;;;;;;;1.50;100.00;103551.31;5255400;28;20025;-70
2022/01/12 04:38:40;;;;;;;96.60;38.80;;;;;;;1.49;100.00;103542.50;5253927;28;20053;-70
2022/01/12 04:41:12;;;;;;;84.65;37.75;;;;;;;1.58;100.00;103536.44;5256614;28;20367;-69
2022/01/12 04:43:44;;;;;;;99.90;39.33;;;;;;;1.57;100.00;103542.53;5251748;28;20402;-70
2022/01/12 04:49:06;;;;;;;97.65;40.45;;;;;;;1.54;100.00;103538.16;5244929;28;20033;-70
2022/01/12 04:51:38;;;;;;;84.70;37.45;;;;;;;1.52;100.00;103547.81;5252711;28;20475;-70
2022/01/12 04:54:09;;;;;;;91.80;39.17;;;;;;;1.58;100.00;103538.19;5254378;28;20035;-70
2022/01/12 04:56:40;;;;;;;97.55;40.40;;;;;;;1.57;100.00;103534.66;5248327;28;20037;-69
2022/01/12 04:59:12;;;;;;;86.20;38.55;;;;;;;1.63;100.00;103525.91;5250608;28;20118;-70
2022/01/12 05:01:51;;;;;;;79.90;38.50;;;;;;;1.68;100.00;103517.16;5253691;28;20025;-70
2022/01/12 05:07:44;;;;;;;92.18;38.58;;;;;;;1.61;100.00;103528.56;5246257;28;20049;-69
2022/01/12 05:12:52;;;;;;;84.47;36.50;;;;;;;1.65;100.00;103522.44;5255235;28;20037;-69
2022/01/12 05:15:34;;;;;;;99.05;39.75;;;;;;;1.58;100.00;103536.44;5249883;28;20017;-69
2022/01/12 05:18:05;;;;;;;91.28;38.45;;;;;;;1.58;100.00;103527.66;5254675;28;20081;-69
2022/01/12 05:20:37;;;;;;;106.53;40.92;;;;;;;1.65;100.00;103534.69;5255051;28;20021;-69
2022/01/12 05:23:08;;;;;;;92.95;39.63;;;;;;;1.66;100.00;103529.44;5252848;28;20029;-69
2022/01/12 05:25:40;;;;;;;98.60;39.95;;;;;;;1.59;100.00;103537.31;5254436;28;20104;-69
2022/01/12 05:28:13;;;;;;;91.55;39.45;;;;;;;1.61;100.00;103533.81;5252378;28;20025;-69
2022/01/12 05:30:45;;;;;;;97.80;42.17;;;;;;;1.58;100.00;103533.78;5251472;28;20064;-69
2022/01/12 05:33:20;;;;;;;97.30;40.58;;;;;;;1.56;100.00;103543.44;5252878;28;20234;-70
2022/01/12 05:35:53;;;;;;;92.80;38.65;;;;;;;1.68;100.00;103551.38;5257048;28;20025;-70
2022/01/12 05:38:26;;;;;;;101.03;40.85;;;;;;;1.67;100.00;103557.53;5261688;28;20029;-70
2022/01/12 05:41:01;;;;;;;108.85;42.38;;;;;;;1.63;100.00;103558.38;5256240;28;20049;-70
2022/01/12 05:43:35;;;;;;;95.07;40.35;;;;;;;1.70;100.00;103559.28;5255199;28;20475;-70
2022/01/12 05:46:13;;;;;;;117.28;43.35;;;;;;;1.67;100.00;103561.88;5255447;28;20095;-69
2022/01/12 05:51:52;;;;;;;86.57;39.70;;;;;;;1.59;100.00;103559.22;5246408;28;20418;-70
2022/01/12 05:54:23;;;;;;;101.78;40.75;;;;;;;1.59;100.00;103564.47;5252237;28;20040;-70
2022/01/12 05:56:54;;;;;;;91.00;39.13;;;;;;;1.72;100.00;103565.44;5250255;28;20043;-70
2022/01/12 05:59:26;;;;;;;91.45;39.50;;;;;;;1.67;100.00;103557.53;5248546;28;20117;-70
2022/01/12 06:01:57;;;;;;;91.88;40.63;;;;;;;1.70;100.00;103556.66;5248618;28;20044;-70
2022/01/12 06:04:28;;;;;;;101.43;40.35;;;;;;;1.76;100.00;103554.94;5249906;28;21202;-70
2022/01/12 06:07:02;;;;;;;102.90;42.83;;;;;;;1.70;100.00;103568.06;5247986;28;20475;-70
2022/01/12 06:09:33;;;;;;;93.88;41.67;;;;;;;1.65;100.00;103574.16;5250266;28;20080;-70
2022/01/12 06:12:04;;;;;;;113.53;42.75;;;;;;;1.72;100.00;103573.31;5248251;28;20032;-70
2022/01/12 06:14:38;;;;;;;109.20;43.45;;;;;;;1.67;100.00;103568.06;5247857;28;20039;-70
2022/01/12 06:17:11;;;;;;;108.38;42.03;;;;;;;1.74;100.00;103571.56;5249108;28;20040;-69
2022/01/12 06:19:42;;;;;;;106.90;42.72;;;;;;;1.76;100.00;103575.09;5246883;28;20025;-70
2022/01/12 06:22:13;;;;;;;109.15;43.80;;;;;;;1.75;100.00;103576.84;5248170;28;20035;-70
2022/01/12 06:24:45;;;;;;;113.55;46.13;;;;;;;1.77;100.00;103592.66;5249147;28;20056;-70
2022/01/12 06:27:17;;;;;;;104.75;42.03;;;;;;;1.74;100.00;103595.25;5249544;28;20609;-70
2022/01/12 06:30:01;;;;;;;107.28;43.85;;;;;;;1.71;100.00;103605.81;5248439;28;20021;-70
2022/01/12 06:32:33;;;;;;;104.45;42.95;;;;;;;1.62;100.00;103606.63;5247282;28;20127;-70
2022/01/12 06:35:04;;;;;;;101.25;41.20;;;;;;;1.68;100.00;103605.78;5247612;28;20020;-70
2022/01/12 06:37:35;;;;;;;102.18;42.40;;;;;;;1.52;100.00;103607.44;5249950;28;20025;-70
2022/01/12 06:40:07;;;;;;;97.22;42.25;;;;;;;1.60;100.00;103616.25;5249651;28;20025;-70
2022/01/12 06:42:39;;;;;;;115.00;43.33;;;;;;;1.50;100.00;103617.09;5250256;28;20060;-70
2022/01/12 06:45:10;;;;;;;103.18;42.60;;;;;;;1.55;100.00;103616.25;5248936;28;20040;-69
2022/01/12 06:47:42;;;;;;;107.28;43.70;;;;;;;1.62;100.00;103630.31;5247343;28;20386;-70
2022/01/12 06:50:13;;;;;;;105.95;43.90;;;;;;;1.51;100.00;103637.25;5247352;28;20507;-70
2022/01/12 06:52:44;;;;;;;106.20;44.13;;;;;;;1.55;100.00;103628.50;5248953;28;20391;-69
2022/01/12 06:55:16;;;;;;;124.53;44.60;;;;;;;1.59;100.00;103619.75;5248193;28;20029;-70
2022/01/12 06:57:47;;;;;;;119.80;46.72;;;;;;;1.55;100.00;103621.50;5247440;28;20036;-70
2022/01/12 07:00:18;;;;;;;127.68;47.38;;;;;;;1.58;100.00;103627.66;5253282;28;20444;-69
2022/01/12 07:02:49;;;;;;;125.10;45.55;;;;;;;1.60;100.00;103631.16;5247272;28;20029;-70
2022/01/12 07:05:21;;;;;;;116.70;45.50;;;;;;;1.55;100.00;103626.78;5244283;28;20064;-70
2022/01/12 07:07:52;;;;;;;99.40;41.88;;;;;;;1.68;100.00;103632.09;5246895;28;20032;-70
2022/01/12 07:10:24;;;;;;;117.20;46.17;;;;;;;1.66;100.00;103636.47;5247130;28;20045;-69
2022/01/12 07:12:56;;;;;;;124.80;46.10;;;;;;;1.62;100.00;103643.47;5247271;28;20112;-70
2022/01/12 07:15:27;;;;;;;111.63;44.95;;;;;;;1.62;100.00;103653.97;5248771;28;20089;-70
2022/01/12 07:18:03;;;;;;;111.85;45.50;;;;;;;1.63;100.00;103650.50;5251469;28;20041;-70
2022/01/12 07:20:34;;;;;;;122.78;44.97;;;;;;;1.63;100.00;103642.59;5256192;28;20021;-70
2022/01/12 07:23:06;;;;;;;122.10;46.00;;;;;;;1.64;100.00;103638.22;5245700;28;20402;-70
2022/01/12 07:25:37;;;;;;;139.70;46.47;;;;;;;1.67;100.00;103646.09;5247836;28;20519;-70
2022/01/12 07:28:08;;;;;;;102.07;43.67;;;;;;;1.73;100.00;103651.44;5244912;28;20055;-70
2022/01/12 07:30:40;;;;;;;110.18;44.33;;;;;;;1.66;100.00;103652.25;5245651;28;20027;-70
2022/01/12 07:33:12;;;;;;;108.32;44.05;;;;;;;1.70;100.00;103654.03;5246926;28;20049;-70
2022/01/12 07:35:44;;;;;;;146.02;46.58;;;;;;;1.72;100.00;103655.78;5247236;28;20241;-70
2022/01/12 07:38:15;;;;;;;111.47;44.60;;;;;;;1.74;100.00;103661.94;5246228;28;20033;-70
2022/01/12 07:40:47;;;;;;;120.65;46.00;;;;;;;1.68;100.00;103682.09;5250707;28;20029;-70
2022/01/12 07:43:18;;;;;;;112.47;44.67;;;;;;;1.64;100.00;103688.22;5249629;28;20036;-70
2022/01/12 07:45:49;;;;;;;124.75;44.38;;;;;;;1.65;100.00;103690.84;5254161;28;20032;-70
2022/01/12 07:48:20;;;;;;;129.65;48.80;;;;;;;1.63;100.00;103700.50;5251116;28;20120;-70
2022/01/12 07:50:52;;;;;;;105.15;44.42;;;;;;;1.74;100.00;103695.28;5251608;28;20645;-70
2022/01/12 07:53:23;;;;;;;110.28;44.85;;;;;;;1.71;100.00;103690.91;5253796;28;20040;-70
2022/01/12 07:55:55;;;;;;;116.38;45.42;;;;;;;1.63;100.00;103700.50;5248535;28;20080;-70
2022/01/12 07:58:26;;;;;;;136.70;47.75;;;;;;;1.68;100.00;103698.75;5254562;28;20068;-70
2022/01/12 08:00:57;;;;;;;131.25;48.20;;;;;;;1.67;100.00;103707.53;5258333;28;20028;-70
2022/01/12 08:03:29;;;;;;;135.95;48.20;;;;;;;1.74;100.00;103711.94;5254242;28;20777;-70
2022/01/12 08:06:01;;;;;;;127.45;47.78;;;;;;;1.74;100.00;103724.25;5250839;28;20033;-70
2022/01/12 08:08:33;;;;;;;131.02;46.78;;;;;;;1.71;100.00;103717.22;5257777;28;20049;-70
2022/01/12 08:11:04;;;;;;;135.88;48.58;;;;;;;1.73;100.00;103726.00;5255441;28;20072;-70
2022/01/12 08:13:36;;;;;;;150.90;48.97;;;;;;;1.80;100.00;103737.44;5249548;28;20527;-70
2022/01/12 08:16:07;;;;;;;143.05;49.15;;;;;;;1.75;100.00;103734.78;5253985;28;20036;-70
2022/01/12 08:18:38;;;;;;;129.68;48.70;;;;;;;1.76;100.00;103744.47;5222407;28;20090;-70
2022/01/12 08:21:09;;;;;;;146.70;50.90;;;;;;;1.72;100.00;103752.31;5234450;28;20120;-70
2022/01/12 08:23:41;;;;;;;168.75;51.55;;;;;;;1.70;100.00;103751.41;5234533;28;20170;-70
2022/01/12 08:26:12;;;;;;;162.48;51.85;;;;;;;1.69;100.00;103755.81;5240094;28;20512;-70
2022/01/12 08:28:44;;;;;;;197.75;55.58;;;;;;;1.75;100.00;103750.56;5249693;28;20674;-70
2022/01/12 08:31:17;;;;;;;210.50;59.25;;;;;;;1.76;100.00;103751.44;5252611;28;20124;-70
2022/01/12 08:33:48;;;;;;;205.32;53.47;;;;;;;1.83;100.00;103757.66;5253952;28;20066;-70
2022/01/12 08:36:20;;;;;;;198.18;57.40;;;;;;;1.80;100.00;103749.72;5246784;28;20028;-70
2022/01/12 08:38:51;;;;;;;178.98;51.53;;;;;;;1.92;100.00;103747.19;5253055;28;20069;-70
2022/01/12 08:41:22;;;;;;;231.70;56.10;;;;;;;1.93;100.00;103754.22;5254381;28;20038;-70
2022/01/12 08:43:54;;;;;;;273.88;61.95;;;;;;;1.99;100.00;103754.25;5252557;28;20036;-70
2022/01/12 08:46:25;;;;;;;281.25;60.13;;;;;;;1.99;100.00;103756.88;5250456;28;20082;-70
2022/01/12 08:48:56;;;;;;;378.10;68.00;;;;;;;1.98;100.00;103752.50;5251365;28;20114;-70
2022/01/12 08:51:28;;;;;;;324.23;65.32;;;;;;;2.01;100.00;103752.50;5254141;28;20183;-70
2022/01/12 08:53:59;;;;;;;272.55;63.13;;;;;;;2.06;100.00;103758.69;5249205;28;20032;-70
2022/01/12 08:56:32;;;;;;;300.63;66.43;;;;;;;2.11;100.00;103763.97;5253838;28;20041;-70
2022/01/12 08:59:03;;;;;;;288.95;63.45;;;;;;;2.16;100.00;103751.72;5250299;28;20025;-70
2022/01/12 09:01:34;;;;;;;186.68;51.63;;;;;;;2.26;100.00;103765.81;5251347;28;20071;-70
2022/01/12 09:04:06;;;;;;;207.48;57.17;;;;;;;2.29;100.00;103765.84;5253540;28;20068;-70
2022/01/12 09:06:37;;;;;;;354.48;68.18;;;;;;;2.27;100.00;103760.56;5252491;28;20036;-70
2022/01/12 09:09:08;;;;;;;298.25;63.05;;;;;;;2.27;100.00;103767.59;5249003;28;20132;-70
2022/01/12 09:11:39;;;;;;;313.77;67.25;;;;;;;2.24;100.00;103780.72;5249361;28;20037;-70
2022/01/12 09:14:11;;;;;;;355.98;67.10;;;;;;;2.30;100.00;103791.28;5253522;28;20190;-70
2022/01/12 09:16:42;;;;;;;289.40;62.55;;;;;;;2.28;100.00;103799.22;5250059;28;20029;-70
2022/01/12 09:19:13;;;;;;;291.83;63.53;;;;;;;2.25;100.00;103800.94;5250848;28;20057;-70
2022/01/12 09:21:45;;;;;;;339.77;65.85;;;;;;;2.26;100.00;103805.31;5251608;28;20017;-70
2022/01/12 09:24:16;;;;;;;171.00;51.33;;;;;;;2.37;100.00;103797.50;5253288;28;20041;-70
2022/01/12 09:26:49;;;;;;;298.77;62.78;;;;;;;2.39;100.00;103801.03;5249324;28;20684;-70
2022/01/12 09:29:20;;;;;;;324.73;63.15;;;;;;;2.32;100.00;103800.09;5249815;28;20036;-70
2022/01/12 09:31:52;;;;;;;329.48;65.72;;;;;;;2.30;100.00;103809.75;5251090;28;20040;-70
2022/01/12 09:34:23;;;;;;;282.05;60.20;;;;;;;2.35;100.00;103823.84;5253159;28;20041;-70
2022/01/12 09:36:54;;;;;;;339.02;64.55;;;;;;;2.37;100.00;103821.22;5248533;28;20039;-70
2022/01/12 09:39:26;;;;;;;337.42;61.97;;;;;;;2.33;100.00;103826.44;5251631;28;20142;-70
2022/01/12 09:41:58;;;;;;;338.00;56.47;;;;;;;2.34;100.00;103822.09;5249736;28;20033;-70
2022/01/12 09:44:38;;;;;;;263.92;53.10;;;;;;;2.35;100.00;103821.19;5250007;28;20029;-70
2022/01/12 09:47:09;;;;;;;236.30;47.97;;;;;;;2.33;100.00;103826.44;5251267;28;20501;-70
2022/01/12 09:49:43;;;;;;;300.92;52.17;;;;;;;2.34;100.00;103822.97;5253497;28;20036;-70
2022/01/12 09:52:15;;;;;;;325.23;53.90;;;;;;;2.33;100.00;103825.56;5252297;28;20032;-70
2022/01/12 09:54:46;;;;;;;284.80;51.65;;;;;;;2.29;100.00;103826.44;5248549;28;20032;-70
2022/01/12 09:57:18;;;;;;;295.55;50.40;;;;;;;2.31;100.00;103822.94;5250097;28;20037;-70
2022/01/12 09:59:49;;;;;;;297.45;51.97;;;;;;;2.33;100.00;103821.19;5248117;28;20485;-70
2022/01/12 10:02:21;;;;;;;239.50;48.63;;;;;;;2.35;100.00;103831.75;5239067;28;20037;-70
2022/01/12 10:05:07;;;;;;;189.93;44.67;;;;;;;2.41;100.00;103842.31;5250165;28;20055;-70
2022/01/12 10:07:39;;;;;;;248.15;45.80;;;;;;;2.40;100.00;103852.84;5247553;28;20029;-70
2022/01/12 10:10:15;;;;;;;284.13;47.13;;;;;;;2.33;100.00;103855.44;5251617;28;20051;-70
2022/01/12 10:12:54;;;;;;;223.73;46.13;;;;;;;2.45;100.00;103864.28;5250499;28;20029;-69
2022/01/12 10:15:29;;;;;;;245.30;48.67;;;;;;;2.46;100.00;103863.44;5248693;28;20374;-69
2022/01/12 10:18:02;;;;;;;289.48;51.63;;;;;;;2.48;100.00;103861.69;5249357;28;20033;-69
2022/01/12 10:20:43;;;;;;;298.48;51.00;;;;;;;2.46;100.00;103863.44;5251414;28;20025;-69
2022/01/12 10:23:16;;;;;;;185.30;43.00;;;;;;;2.50;100.00;103863.44;5249163;28;20256;-69
2022/01/12 10:25:48;;;;;;;269.67;46.65;;;;;;;2.55;100.00;103855.56;5251728;28;20451;-69
2022/01/12 10:28:22;;;;;;;333.35;51.67;;;;;;;2.48;100.00;103852.03;5250141;28;20176;-69
2022/01/12 10:30:59;;;;;;;270.67;42.65;;;;;;;2.52;100.00;103851.16;5250630;28;20037;-69
2022/01/12 10:33:33;;;;;;;169.52;37.50;;;;;;;2.56;100.00;103841.53;5249656;28;20041;-69
2022/01/12 10:36:10;;;;;;;175.23;37.30;;;;;;;2.55;100.00;103838.00;5243055;28;20020;-69
2022/01/12 10:38:41;;;;;;;244.07;40.72;;;;;;;2.58;100.00;103829.22;5246159;28;20133;-69
2022/01/12 10:41:15;;;;;;;325.63;45.35;;;;;;;2.49;100.00;103832.72;5244175;28;20021;-69
2022/01/12 10:43:46;;;;;;;303.10;47.00;;;;;;;2.54;100.00;103844.16;5249977;28;20107;-69
2022/01/12 10:46:19;;;;;;;369.55;48.00;;;;;;;2.48;100.00;103844.13;5249977;28;20043;-69
2022/01/12 10:48:52;;;;;;;305.98;45.88;;;;;;;2.47;100.00;103842.34;5250439;28;20025;-69
2022/01/12 10:51:27;;;;;;;291.23;46.10;;;;;;;2.51;100.00;103852.06;5251607;28;20047;-69
2022/01/12 10:54:00;;;;;;;260.45;43.53;;;;;;;2.53;100.00;103850.31;5250528;28;20021;-69
2022/01/12 10:56:32;;;;;;;340.23;48.15;;;;;;;2.52;100.00;103847.66;5250545;28;20465;-69
2022/01/12 10:59:03;;;;;;;372.17;51.03;;;;;;;2.58;100.00;103854.72;5251821;28;20025;-69
2022/01/12 11:01:34;;;;;;;382.98;54.40;;;;;;;2.62;100.00;103851.22;5249137;28;20028;-69
2022/01/12 11:04:06;;;;;;;356.90;50.63;;;;;;;2.60;100.00;103853.84;5249022;28;20035;-69
2022/01/12 11:06:38;;;;;;;347.30;48.65;;;;;;;2.54;100.00;103869.63;5252811;28;20612;-69
2022/01/12 11:09:09;;;;;;;282.38;48.47;;;;;;;2.52;100.00;103858.19;5250641;28;20045;-69
2022/01/12 11:11:41;;;;;;;218.05;46.85;;;;;;;2.60;100.00;103850.34;5249104;28;20029;-69
2022/01/12 11:14:12;;;;;;;186.23;44.22;;;;;;;2.60;100.00;103850.34;5245240;28;20025;-70
2022/01/12 11:16:44;;;;;;;152.32;38.25;;;;;;;2.73;100.00;103855.66;5251389;28;20035;-70
2022/01/12 11:19:17;;;;;;;149.82;36.97;;;;;;;2.75;100.00;103851.28;5246843;28;20044;-70
2022/01/12 11:22:13;;;;;;;170.73;38.03;;;;;;;2.79;100.00;103848.66;5244231;28;20112;-70
2022/01/12 11:24:44;;;;;;;329.42;45.17;;;;;;;2.70;100.00;103860.94;5252189;28;20382;-69
2022/01/12 11:27:21;;;;;;;136.70;36.20;;;;;;;2.84;100.00;103850.47;5251459;28;20017;-69
2022/01/12 11:29:52;;;;;;;140.05;37.53;;;;;;;2.91;100.00;103860.13;5243407;28;20052;-69
2022/01/12 11:32:23;;;;;;;187.45;40.80;;;;;;;2.87;100.00;103863.63;5251444;28;20167;-69
2022/01/12 11:35:02;;;;;;;136.60;37.58;;;;;;;2.93;100.00;103857.50;5244414;28;20036;-69
2022/01/12 11:37:33;;;;;;;143.80;39.42;;;;;;;2.92;100.00;103864.53;5243975;28;20067;-69
2022/01/12 11:40:08;;;;;;;158.10;40.78;;;;;;;2.89;100.00;103864.53;5243552;28;20103;-69
2022/01/12 11:42:39;;;;;;;134.57;38.63;;;;;;;2.91;100.00;103865.41;5241182;28;20466;-69
2022/01/12 11:45:19;;;;;;;115.05;37.05;;;;;;;2.83;100.00;103861.00;5244423;28;20115;-69
2022/01/12 11:47:51;;;;;;;109.97;34.05;;;;;;;2.88;100.00;103859.25;5242791;28;20029;-69
2022/01/12 11:50:22;;;;;;;113.60;35.00;;;;;;;2.96;100.00;103856.66;5244145;28;20679;-69
2022/01/12 11:52:54;;;;;;;101.22;32.17;;;;;;;3.04;100.00;103847.88;5242798;28;20135;-69
2022/01/12 11:55:34;;;;;;;121.45;34.72;;;;;;;3.01;100.00;103844.34;5244140;28;20032;-69
2022/01/12 11:58:16;;;;;;;113.05;34.88;;;;;;;3.11;100.00;103843.53;5242702;28;20079;-69
2022/01/12 12:00:47;;;;;;;101.00;32.95;;;;;;;3.11;100.00;103839.13;5244379;28;20044;-69
2022/01/12 12:03:19;;;;;;;112.88;34.17;;;;;;;3.15;100.00;103845.28;5245220;28;20127;-69
2022/01/12 12:05:54;;;;;;;100.22;33.28;;;;;;;2.99;100.00;103859.28;5254623;28;20031;-69
2022/01/12 12:08:25;;;;;;;98.50;33.78;;;;;;;3.08;100.00;103860.19;5247389;28;20059;-69
2022/01/12 12:10:57;;;;;;;106.35;34.08;;;;;;;3.11;100.00;103851.44;5244041;28;20152;-69
2022/01/12 12:13:28;;;;;;;115.80;34.38;;;;;;;3.14;100.00;103851.44;5243600;28;20690;-69
2022/01/12 12:15:59;;;;;;;99.80;33.20;;;;;;;3.21;100.00;103858.50;5243148;28;20033;-69
2022/01/12 12:18:30;;;;;;;105.32;34.05;;;;;;;3.11;100.00;103852.31;5242231;28;20525;-69
2022/01/12 12:21:02;;;;;;;105.25;34.45;;;;;;;3.12;100.00;103859.34;5243394;28;20566;-69
2022/01/12 12:23:33;;;;;;;100.93;33.55;;;;;;;3.08;100.00;103864.59;5241071;28;20083;-69
2022/01/12 12:26:10;;;;;;;102.30;34.97;;;;;;;3.10;100.00;103865.50;5243653;28;20488;-69
2022/01/12 12:28:47;;;;;;;88.38;31.08;;;;;;;2.89;100.00;103861.88;5243769;28;20029;-69
2022/01/12 12:31:23;;;;;;;92.53;30.67;;;;;;;2.97;100.00;103858.41;5247415;28;20752;-69
2022/01/12 12:33:59;;;;;;;110.13;32.67;;;;;;;3.00;100.00;103858.44;5252680;28;20025;-69
2022/01/12 12:36:32;;;;;;;102.53;32.03;;;;;;;2.97;100.00;103853.13;5255935;28;20147;-69
2022/01/12 12:39:13;;;;;;;104.80;33.50;;;;;;;3.01;100.00;103857.53;5252662;28;20025;-69